createdAt,value
2019-03-26T00:00:56.812Z,64.60
2019-03-26T00:02:01.276Z,64.60
2019-03-26T00:03:05.827Z,65.40
2019-03-26T00:04:10.284Z,64.60
2019-03-26T00:05:14.758Z,64.70
2019-03-26T00:06:19.233Z,64.50
2019-03-26T00:07:24.002Z,64.40
2019-03-26T00:08:28.590Z,64.60
2019-03-26T00:09:33.061Z,64.40
2019-03-26T00:10:37.589Z,64.40
2019-03-26T00:11:42.055Z,64.30
2019-03-26T00:12:46.516Z,64.50
2019-03-26T00:13:50.984Z,64.50
2019-03-26T00:14:55.516Z,64.40
2019-03-26T00:16:00.002Z,64.40
2019-03-26T00:17:04.550Z,65.20
2019-03-26T00:18:09.011Z,64.60
2019-03-26T00:19:13.478Z,64.40
2019-03-26T00:20:17.932Z,64.50
2019-03-26T00:21:22.416Z,64.50
2019-03-26T00:22:26.876Z,64.50
2019-03-26T00:23:31.350Z,64.60
2019-03-26T00:24:35.810Z,64.50
2019-03-26T00:25:40.352Z,64.50
2019-03-26T00:26:44.837Z,64.60
2019-03-26T00:27:49.296Z,64.60
2019-03-26T00:28:53.764Z,64.60
2019-03-26T00:29:58.219Z,65.30
2019-03-26T00:31:02.694Z,64.60
2019-03-26T00:32:07.161Z,64.50
2019-03-26T00:33:12.382Z,64.40
2019-03-26T00:34:19.542Z,64.40
2019-03-26T00:35:23.094Z,64.50
2019-03-26T00:36:27.564Z,64.40
2019-03-26T00:37:32.047Z,64.40
2019-03-26T00:38:36.628Z,64.40
2019-03-26T00:39:41.377Z,64.30
2019-03-26T00:40:45.933Z,64.20
2019-03-26T00:41:50.395Z,64.20
2019-03-26T00:42:54.874Z,64.30
2019-03-26T00:43:59.669Z,64.10
2019-03-26T00:45:05.390Z,64.00
2019-03-26T00:46:09.846Z,64.10
2019-03-26T00:47:14.302Z,64.10
2019-03-26T00:48:18.788Z,64.10
2019-03-26T00:49:23.247Z,64.20
2019-03-26T00:50:27.749Z,64.10
2019-03-26T00:51:32.200Z,64.00
2019-03-26T00:52:36.676Z,64.10
2019-03-26T00:53:41.126Z,64.10
2019-03-26T00:54:46.215Z,64.10
2019-03-26T00:55:50.690Z,64.10
2019-03-26T00:56:55.168Z,64.30
2019-03-26T00:58:01.657Z,64.30
2019-03-26T00:59:05.822Z,64.30
2019-03-26T01:12:31.303Z,63.90
2019-03-26T01:13:35.910Z,63.80
2019-03-26T01:14:40.390Z,63.80
2019-03-26T01:15:44.862Z,64.00
2019-03-26T01:16:49.335Z,64.20
2019-03-26T01:17:53.795Z,64.30
2019-03-26T01:18:58.290Z,64.40
2019-03-26T01:20:02.747Z,64.40
2019-03-26T01:21:07.278Z,64.60
2019-03-26T01:22:11.740Z,64.60
2019-03-26T01:23:16.211Z,64.70
2019-03-26T01:24:20.692Z,64.90
2019-03-26T01:25:25.155Z,64.80
2019-03-26T01:26:29.801Z,65.00
2019-03-26T01:27:34.267Z,65.00
2019-03-26T01:28:38.735Z,65.00
2019-03-26T01:29:43.202Z,65.00
2019-03-26T01:30:47.659Z,65.00
2019-03-26T01:31:52.133Z,65.00
2019-03-26T01:32:56.599Z,65.10
2019-03-26T01:34:01.078Z,65.20
2019-03-26T01:35:07.004Z,65.20
2019-03-26T01:36:11.520Z,65.10
2019-03-26T01:37:15.974Z,65.20
2019-03-26T01:38:20.458Z,65.30
2019-03-26T01:39:24.930Z,65.40
2019-03-26T01:40:29.423Z,65.40
2019-03-26T01:41:33.874Z,65.40
2019-03-26T01:42:38.347Z,65.40
2019-03-26T01:43:42.808Z,65.40
2019-03-26T01:44:47.289Z,65.40
2019-03-26T01:45:51.772Z,65.30
2019-03-26T01:46:56.252Z,65.30
2019-03-26T01:48:00.708Z,65.40
2019-03-26T01:49:05.171Z,65.40
2019-03-26T01:50:09.720Z,65.40
2019-03-26T01:51:14.230Z,65.40
2019-03-26T01:52:18.723Z,65.50
2019-03-26T01:53:23.175Z,65.60
2019-03-26T01:54:27.649Z,65.70
2019-03-26T01:55:32.302Z,65.70
2019-03-26T01:56:36.905Z,65.80
2019-03-26T01:57:41.381Z,65.80
2019-03-26T01:58:45.854Z,65.80
2019-03-26T01:59:50.328Z,65.80
2019-03-26T02:00:54.784Z,65.80
2019-03-26T02:01:59.285Z,65.90
2019-03-26T02:03:03.769Z,65.80
2019-03-26T02:04:08.236Z,65.90
2019-03-26T02:05:12.689Z,65.80
2019-03-26T02:06:17.142Z,65.80
2019-03-26T02:07:21.622Z,65.80
2019-03-26T02:08:26.070Z,65.70
2019-03-26T02:09:30.539Z,65.80
2019-03-26T02:10:35.016Z,65.70
2019-03-26T02:11:39.483Z,65.80
2019-03-26T02:12:43.974Z,65.90
2019-03-26T02:13:48.423Z,66.00
2019-03-26T02:14:52.882Z,65.90
2019-03-26T02:15:57.362Z,65.90
2019-03-26T02:17:01.826Z,65.80
2019-03-26T02:18:06.367Z,65.80
2019-03-26T02:19:10.827Z,65.80
2019-03-26T02:20:15.302Z,65.80
2019-03-26T02:21:20.314Z,65.70
2019-03-26T02:22:24.809Z,65.70
2019-03-26T02:23:29.296Z,65.70
2019-03-26T02:24:33.763Z,65.60
2019-03-26T02:25:38.246Z,65.60
2019-03-26T02:26:42.720Z,65.70
2019-03-26T02:27:47.185Z,65.70
2019-03-26T02:28:51.677Z,65.80
2019-03-26T02:29:56.211Z,65.70
2019-03-26T02:31:00.928Z,65.80
2019-03-26T02:32:05.393Z,65.80
2019-03-26T02:33:10.161Z,65.80
2019-03-26T02:34:14.657Z,65.80
2019-03-26T02:35:19.506Z,65.80
2019-03-26T02:36:24.061Z,65.80
2019-03-26T02:37:28.525Z,65.80
2019-03-26T02:38:32.984Z,65.80
2019-03-26T02:39:37.486Z,65.90
2019-03-26T02:40:41.947Z,65.80
2019-03-26T02:41:46.447Z,65.80
2019-03-26T02:42:50.899Z,65.70
2019-03-26T02:43:55.359Z,65.70
2019-03-26T02:44:59.852Z,65.70
2019-03-26T02:46:04.411Z,65.70
2019-03-26T02:47:08.879Z,65.80
2019-03-26T02:48:13.327Z,65.70
2019-03-26T02:49:17.809Z,65.70
2019-03-26T02:50:22.286Z,65.80
2019-03-26T02:51:26.749Z,65.90
2019-03-26T02:52:31.502Z,65.80
2019-03-26T02:53:35.979Z,65.80
2019-03-26T02:54:40.450Z,65.80
2019-03-26T02:55:44.926Z,66.00
2019-03-26T02:56:49.395Z,65.80
2019-03-26T02:57:54.039Z,65.70
2019-03-26T02:58:58.495Z,65.70
2019-03-26T03:00:03.058Z,66.00
2019-03-26T03:01:07.547Z,65.90
2019-03-26T03:02:12.019Z,66.00
2019-03-26T03:03:16.740Z,65.90
2019-03-26T03:04:21.208Z,65.80
2019-03-26T03:05:34.884Z,65.70
2019-03-26T03:06:31.837Z,66.40
2019-03-26T03:07:36.406Z,65.70
2019-03-26T03:08:40.948Z,65.70
2019-03-26T03:09:45.427Z,65.70
2019-03-26T03:10:49.903Z,65.70
2019-03-26T03:11:54.422Z,65.70
2019-03-26T03:12:58.916Z,65.70
2019-03-26T03:14:03.547Z,65.80
2019-03-26T03:15:08.805Z,65.80
2019-03-26T03:16:13.277Z,65.70
2019-03-26T03:17:17.733Z,65.70
2019-03-26T03:18:22.200Z,65.80
2019-03-26T03:19:26.671Z,65.80
2019-03-26T03:20:31.146Z,65.80
2019-03-26T03:21:35.608Z,65.70
2019-03-26T03:22:40.091Z,65.60
2019-03-26T03:23:44.553Z,65.60
2019-03-26T03:24:49.027Z,65.60
2019-03-26T03:25:53.502Z,65.60
2019-03-26T03:26:57.981Z,65.40
2019-03-26T03:28:02.446Z,65.40
2019-03-26T03:29:06.916Z,65.30
2019-03-26T03:30:11.728Z,65.20
2019-03-26T03:31:16.191Z,65.10
2019-03-26T03:32:20.668Z,65.10
2019-03-26T03:33:25.132Z,65.00
2019-03-26T03:34:29.607Z,65.00
2019-03-26T03:35:50.730Z,65.00
2019-03-26T03:36:40.254Z,65.00
2019-03-26T03:37:44.727Z,65.00
2019-03-26T03:38:49.190Z,65.00
2019-03-26T03:39:53.663Z,65.00
2019-03-26T03:40:58.143Z,65.00
2019-03-26T03:42:02.973Z,65.50
2019-03-26T03:43:07.620Z,65.00
2019-03-26T03:44:12.074Z,65.00
2019-03-26T03:45:19.630Z,65.00
2019-03-26T03:46:24.130Z,65.00
2019-03-26T03:47:31.658Z,65.00
2019-03-26T03:48:36.659Z,65.00
2019-03-26T03:49:41.563Z,64.80
2019-03-26T03:50:46.274Z,64.90
2019-03-26T03:51:52.205Z,64.90
2019-03-26T03:52:59.381Z,64.90
2019-03-26T03:54:04.185Z,64.90
2019-03-26T03:55:08.883Z,64.90
2019-03-26T03:56:16.156Z,64.90
2019-03-26T03:57:23.202Z,64.80
2019-03-26T03:58:29.709Z,64.80
2019-03-26T03:59:34.602Z,64.90
2019-03-26T04:00:39.888Z,64.80
2019-03-26T04:01:44.407Z,65.00
2019-03-26T04:02:48.909Z,65.00
2019-03-26T04:03:53.376Z,65.00
2019-03-26T04:04:57.853Z,65.10
2019-03-26T04:06:09.651Z,65.10
2019-03-26T04:07:08.552Z,65.10
2019-03-26T04:08:13.124Z,65.10
2019-03-26T04:09:17.635Z,65.10
2019-03-26T04:10:22.099Z,65.10
2019-03-26T04:11:26.558Z,65.30
2019-03-26T04:12:31.020Z,65.40
2019-03-26T04:13:35.510Z,65.40
2019-03-26T04:14:39.986Z,65.60
2019-03-26T04:15:44.552Z,65.60
2019-03-26T04:16:49.052Z,65.40
2019-03-26T04:17:53.602Z,65.50
2019-03-26T04:18:58.233Z,65.40
2019-03-26T04:20:02.697Z,65.50
2019-03-26T04:21:07.151Z,65.60
2019-03-26T04:22:11.619Z,66.30
2019-03-26T04:23:16.083Z,65.60
2019-03-26T04:24:20.575Z,65.60
2019-03-26T04:25:25.109Z,65.80
2019-03-26T04:26:29.589Z,65.60
2019-03-26T04:27:35.696Z,65.70
2019-03-26T04:28:40.153Z,65.60
2019-03-26T04:29:44.645Z,65.60
2019-03-26T04:30:49.098Z,65.60
2019-03-26T04:31:53.584Z,65.70
2019-03-26T04:32:58.221Z,65.80
2019-03-26T04:34:02.680Z,65.80
2019-03-26T04:35:07.874Z,65.70
2019-03-26T04:36:24.655Z,65.70
2019-03-26T04:37:18.518Z,65.80
2019-03-26T04:38:23.207Z,65.80
2019-03-26T04:39:27.667Z,65.80
2019-03-26T04:40:32.138Z,65.80
2019-03-26T04:41:36.878Z,65.90
2019-03-26T04:42:41.424Z,65.90
2019-03-26T04:43:45.915Z,65.90
2019-03-26T04:44:50.385Z,65.80
2019-03-26T04:45:54.853Z,65.90
2019-03-26T04:46:59.330Z,65.90
2019-03-26T04:48:03.821Z,65.90
2019-03-26T04:49:08.355Z,66.00
2019-03-26T04:50:12.899Z,66.00
2019-03-26T04:51:17.430Z,66.10
2019-03-26T04:52:21.903Z,66.20
2019-03-26T04:53:26.377Z,66.20
2019-03-26T04:54:30.844Z,66.20
2019-03-26T04:55:35.321Z,66.20
2019-03-26T04:56:39.793Z,66.30
2019-03-26T04:57:44.249Z,66.20
2019-03-26T04:58:48.744Z,66.20
2019-03-26T04:59:53.204Z,66.30
2019-03-26T05:00:57.676Z,66.30
2019-03-26T05:02:02.150Z,67.20
2019-03-26T05:03:06.606Z,66.50
2019-03-26T05:04:11.095Z,66.50
2019-03-26T05:05:15.578Z,66.60
2019-03-26T05:06:20.074Z,66.80
2019-03-26T05:07:24.547Z,66.80
2019-03-26T05:08:29.002Z,66.90
2019-03-26T05:09:33.476Z,66.90
2019-03-26T05:10:38.020Z,66.90
2019-03-26T05:11:42.484Z,66.90
2019-03-26T05:12:47.294Z,67.00
2019-03-26T05:13:51.769Z,67.00
2019-03-26T05:14:56.240Z,67.00
2019-03-26T05:16:00.720Z,67.10
2019-03-26T05:17:05.202Z,67.10
2019-03-26T05:18:09.664Z,67.30
2019-03-26T05:19:14.146Z,67.30
2019-03-26T05:20:18.631Z,67.40
2019-03-26T05:21:23.171Z,67.40
2019-03-26T05:22:27.627Z,67.40
2019-03-26T05:23:32.099Z,67.30
2019-03-26T05:24:36.641Z,67.30
2019-03-26T05:25:41.099Z,67.40
2019-03-26T05:26:45.631Z,67.40
2019-03-26T05:27:50.110Z,67.40
2019-03-26T05:28:54.589Z,67.50
2019-03-26T05:29:59.135Z,67.60
2019-03-26T05:31:03.586Z,67.50
2019-03-26T05:32:08.058Z,67.50
2019-03-26T05:33:12.612Z,67.50
2019-03-26T05:34:17.080Z,67.40
2019-03-26T05:35:21.551Z,67.40
2019-03-26T05:36:26.032Z,67.30
2019-03-26T05:37:30.535Z,67.30
2019-03-26T05:38:35.035Z,67.00
2019-03-26T05:39:39.508Z,67.00
2019-03-26T05:40:43.986Z,67.00
2019-03-26T05:41:48.486Z,67.00
2019-03-26T05:42:52.960Z,67.00
2019-03-26T05:43:57.428Z,67.00
2019-03-26T05:45:01.896Z,67.00
2019-03-26T05:46:06.363Z,67.00
2019-03-26T05:47:10.817Z,67.10
2019-03-26T05:48:15.314Z,67.10
2019-03-26T05:49:19.775Z,67.00
2019-03-26T05:50:24.254Z,67.00
2019-03-26T05:51:28.725Z,66.80
2019-03-26T05:52:33.190Z,66.80
2019-03-26T05:53:37.670Z,66.70
2019-03-26T05:54:42.127Z,66.70
2019-03-26T05:55:46.611Z,66.70
2019-03-26T05:56:51.075Z,66.60
2019-03-26T05:57:55.554Z,66.60
2019-03-26T05:59:00.022Z,66.50
2019-03-26T06:00:08.603Z,66.50
2019-03-26T06:01:13.121Z,66.50
2019-03-26T06:02:18.103Z,66.50
2019-03-26T06:03:22.731Z,66.40
2019-03-26T06:04:27.196Z,66.50
2019-03-26T06:05:31.674Z,66.40
2019-03-26T06:06:36.165Z,66.30
2019-03-26T06:07:40.618Z,66.10
2019-03-26T06:08:45.097Z,66.10
2019-03-26T06:09:49.557Z,66.00
2019-03-26T06:10:54.026Z,65.90
2019-03-26T06:11:58.481Z,65.80
2019-03-26T06:13:02.955Z,65.80
2019-03-26T06:14:07.446Z,65.80
2019-03-26T06:15:12.044Z,65.80
2019-03-26T06:16:16.503Z,65.80
2019-03-26T06:17:20.981Z,65.80
2019-03-26T06:18:25.455Z,65.80
2019-03-26T06:19:29.917Z,65.70
2019-03-26T06:20:34.394Z,65.70
2019-03-26T06:21:38.860Z,65.70
2019-03-26T06:22:43.398Z,65.80
2019-03-26T06:23:47.896Z,65.80
2019-03-26T06:24:52.361Z,65.80
2019-03-26T06:25:56.836Z,66.00
2019-03-26T06:27:01.427Z,66.00
2019-03-26T06:28:05.884Z,66.00
2019-03-26T06:29:10.351Z,66.00
2019-03-26T06:30:14.858Z,66.10
2019-03-26T06:31:19.324Z,65.90
2019-03-26T06:32:23.780Z,65.80
2019-03-26T06:33:28.244Z,65.90
2019-03-26T06:34:32.696Z,65.80
2019-03-26T06:35:37.189Z,65.80
2019-03-26T06:36:41.729Z,65.80
2019-03-26T06:37:46.193Z,65.80
2019-03-26T06:38:50.650Z,65.80
2019-03-26T06:39:58.257Z,65.80
2019-03-26T06:41:01.326Z,65.70
2019-03-26T06:42:05.788Z,65.70
2019-03-26T06:43:10.306Z,65.70
2019-03-26T06:44:14.758Z,65.80
2019-03-26T06:45:19.288Z,65.70
2019-03-26T06:46:23.811Z,65.70
2019-03-26T06:47:28.345Z,65.70
2019-03-26T06:48:33.052Z,65.70
2019-03-26T06:49:37.516Z,65.80
2019-03-26T06:50:41.997Z,66.00
2019-03-26T06:51:46.470Z,66.00
2019-03-26T06:52:50.949Z,66.00
2019-03-26T06:53:55.431Z,66.00
2019-03-26T06:54:59.899Z,66.00
2019-03-26T06:56:04.373Z,66.10
2019-03-26T06:57:08.856Z,66.10
2019-03-26T06:58:13.331Z,66.10
2019-03-26T06:59:17.910Z,66.00
2019-03-26T07:00:32.981Z,66.00
2019-03-26T07:01:37.534Z,66.00
2019-03-26T07:02:42.432Z,65.90
2019-03-26T07:03:47.054Z,65.90
2019-03-26T07:04:51.510Z,65.90
2019-03-26T07:05:56.060Z,65.80
2019-03-26T07:07:00.536Z,65.80
2019-03-26T07:08:05.003Z,65.80
2019-03-26T07:09:09.476Z,65.80
2019-03-26T07:10:15.654Z,65.80
2019-03-26T07:11:20.106Z,65.80
2019-03-26T07:12:24.580Z,65.80
2019-03-26T07:13:29.729Z,65.90
2019-03-26T07:14:34.205Z,65.80
2019-03-26T07:15:38.654Z,65.80
2019-03-26T07:16:43.111Z,65.50
2019-03-26T07:17:47.597Z,65.40
2019-03-26T07:18:52.063Z,65.30
2019-03-26T07:19:56.552Z,65.30
2019-03-26T07:21:01.109Z,65.10
2019-03-26T07:22:05.575Z,65.20
2019-03-26T07:23:10.113Z,65.30
2019-03-26T07:24:14.658Z,65.30
2019-03-26T07:25:21.736Z,65.30
2019-03-26T07:26:26.230Z,65.30
2019-03-26T07:27:30.696Z,65.30
2019-03-26T07:28:35.159Z,65.30
2019-03-26T07:29:39.617Z,65.20
2019-03-26T07:30:45.784Z,65.30
2019-03-26T07:31:50.264Z,65.20
2019-03-26T07:32:54.742Z,65.30
2019-03-26T07:33:59.212Z,65.30
2019-03-26T07:35:04.843Z,65.30
2019-03-26T07:36:09.289Z,65.00
2019-03-26T07:37:13.759Z,64.80
2019-03-26T07:38:18.420Z,64.60
2019-03-26T07:39:22.947Z,64.50
2019-03-26T07:40:27.481Z,64.40
2019-03-26T07:41:32.160Z,64.40
2019-03-26T07:42:36.697Z,64.30
2019-03-26T07:43:41.172Z,64.40
2019-03-26T07:44:45.826Z,64.40
2019-03-26T07:45:50.335Z,64.40
2019-03-26T07:46:54.825Z,64.50
2019-03-26T07:47:59.278Z,64.40
2019-03-26T07:49:04.338Z,64.40
2019-03-26T07:50:08.968Z,64.30
2019-03-26T07:51:13.464Z,64.30
2019-03-26T07:52:18.040Z,64.30
2019-03-26T07:53:22.974Z,64.20
2019-03-26T07:54:27.462Z,64.10
2019-03-26T07:55:31.913Z,64.00
2019-03-26T07:56:36.458Z,63.90
2019-03-26T07:57:40.960Z,63.70
2019-03-26T07:58:45.530Z,63.60
2019-03-26T07:59:50.568Z,63.40
2019-03-26T08:00:55.067Z,63.10
2019-03-26T08:01:59.723Z,63.10
2019-03-26T08:03:04.842Z,63.00
2019-03-26T08:04:12.365Z,63.00
2019-03-26T08:05:15.510Z,63.00
2019-03-26T08:06:20.078Z,62.90
2019-03-26T08:07:24.618Z,62.90
2019-03-26T08:08:29.239Z,62.90
2019-03-26T08:09:33.767Z,62.90
2019-03-26T08:10:38.537Z,62.70
2019-03-26T08:11:43.004Z,62.60
2019-03-26T08:12:47.513Z,62.50
2019-03-26T08:13:52.242Z,62.60
2019-03-26T08:14:56.750Z,62.50
2019-03-26T08:16:01.783Z,62.50
2019-03-26T08:17:06.320Z,62.30
2019-03-26T08:18:10.803Z,62.20
2019-03-26T08:19:15.311Z,62.00
2019-03-26T08:20:19.782Z,62.10
2019-03-26T08:21:24.260Z,62.00
2019-03-26T08:22:28.817Z,62.80
2019-03-26T08:23:33.486Z,62.90
2019-03-26T08:24:37.969Z,62.10
2019-03-26T08:25:42.693Z,62.10
2019-03-26T08:26:47.160Z,62.00
2019-03-26T08:27:51.633Z,62.10
2019-03-26T08:28:56.246Z,62.00
2019-03-26T08:30:00.692Z,62.00
2019-03-26T08:31:05.242Z,62.00
2019-03-26T08:32:10.361Z,62.00
2019-03-26T08:33:14.983Z,62.00
2019-03-26T08:34:19.598Z,61.90
2019-03-26T08:35:24.145Z,61.90
2019-03-26T08:36:28.736Z,61.90
2019-03-26T08:37:33.272Z,61.80
2019-03-26T08:38:37.742Z,61.50
2019-03-26T08:39:42.546Z,61.50
2019-03-26T08:40:47.032Z,61.40
2019-03-26T08:41:51.588Z,61.30
2019-03-26T08:42:56.055Z,61.20
2019-03-26T08:44:00.520Z,61.30
2019-03-26T08:45:07.124Z,61.30
2019-03-26T08:46:11.596Z,61.20
2019-03-26T08:47:16.057Z,61.20
2019-03-26T08:48:20.532Z,61.30
2019-03-26T08:49:30.398Z,61.30
2019-03-26T08:50:31.180Z,61.10
2019-03-26T08:51:35.741Z,60.90
2019-03-26T08:52:40.218Z,60.70
2019-03-26T08:53:44.748Z,60.70
2019-03-26T08:54:49.252Z,60.60
2019-03-26T08:55:53.769Z,60.20
2019-03-26T08:56:58.400Z,60.10
2019-03-26T08:58:02.873Z,59.90
2019-03-26T08:59:07.331Z,59.80
2019-03-26T09:00:12.764Z,59.70
2019-03-26T09:01:17.257Z,59.50
2019-03-26T09:02:21.983Z,59.30
2019-03-26T09:03:26.772Z,59.20
2019-03-26T09:04:31.269Z,59.10
2019-03-26T09:05:36.019Z,59.00
2019-03-26T09:06:40.492Z,59.00
2019-03-26T09:07:44.974Z,58.80
2019-03-26T09:08:49.553Z,58.80
2019-03-26T09:09:54.162Z,58.60
2019-03-26T09:10:58.653Z,58.60
2019-03-26T09:12:03.180Z,58.50
2019-03-26T09:13:07.648Z,58.40
2019-03-26T09:14:12.192Z,58.30
2019-03-26T09:15:16.696Z,58.20
2019-03-26T09:16:21.207Z,58.10
2019-03-26T09:17:25.771Z,58.10
2019-03-26T09:18:30.244Z,57.60
2019-03-26T09:19:34.709Z,58.10
2019-03-26T09:20:40.843Z,58.30
2019-03-26T09:21:45.769Z,58.20
2019-03-26T09:22:50.244Z,58.30
2019-03-26T09:23:54.742Z,58.50
2019-03-26T09:24:59.202Z,58.70
2019-03-26T09:26:03.697Z,58.70
2019-03-26T09:27:08.172Z,59.20
2019-03-26T09:28:12.641Z,58.50
2019-03-26T09:29:17.124Z,58.30
2019-03-26T09:30:21.591Z,58.20
2019-03-26T09:31:26.107Z,58.00
2019-03-26T09:32:30.666Z,58.10
2019-03-26T09:33:35.260Z,58.00
2019-03-26T09:34:39.720Z,58.30
2019-03-26T09:35:44.302Z,58.50
2019-03-26T09:36:48.795Z,58.00
2019-03-26T09:37:53.277Z,57.80
2019-03-26T09:38:57.820Z,57.20
2019-03-26T09:40:02.293Z,56.40
2019-03-26T09:41:06.763Z,55.40
2019-03-26T09:42:11.372Z,55.30
2019-03-26T09:43:15.871Z,55.00
2019-03-26T09:44:20.348Z,54.80
2019-03-26T09:45:24.896Z,54.70
2019-03-26T09:46:29.431Z,54.60
2019-03-26T09:47:33.897Z,54.40
2019-03-26T09:48:38.435Z,54.40
2019-03-26T09:49:42.940Z,54.40
2019-03-26T09:50:47.582Z,54.10
2019-03-26T09:51:52.089Z,54.00
2019-03-26T09:52:56.578Z,53.70
2019-03-26T09:54:01.079Z,53.50
2019-03-26T09:55:10.122Z,52.90
2019-03-26T09:56:27.720Z,52.70
2019-03-26T09:57:20.761Z,52.70
2019-03-26T09:58:25.258Z,52.40
2019-03-26T09:59:29.737Z,52.10
2019-03-26T10:00:34.370Z,52.10
2019-03-26T10:01:39.030Z,52.20
2019-03-26T10:02:43.657Z,52.30
2019-03-26T10:03:48.397Z,52.40
2019-03-26T10:04:52.863Z,52.50
2019-03-26T10:05:57.398Z,52.70
2019-03-26T10:07:01.912Z,52.90
2019-03-26T10:08:06.381Z,52.60
2019-03-26T10:09:10.903Z,52.70
2019-03-26T10:10:16.014Z,52.70
2019-03-26T10:11:20.482Z,52.90
2019-03-26T10:12:24.984Z,52.90
2019-03-26T10:13:29.475Z,52.70
2019-03-26T10:14:33.965Z,51.80
2019-03-26T10:15:38.434Z,51.50
2019-03-26T10:16:42.958Z,51.50
2019-03-26T10:17:47.437Z,51.70
2019-03-26T10:18:51.908Z,52.20
2019-03-26T10:19:56.376Z,52.20
2019-03-26T10:21:00.834Z,52.20
2019-03-26T10:22:05.405Z,52.20
2019-03-26T10:23:09.881Z,52.00
2019-03-26T10:24:14.356Z,51.60
2019-03-26T10:25:18.966Z,51.10
2019-03-26T10:26:23.438Z,50.70
2019-03-26T10:27:28.093Z,50.40
2019-03-26T10:28:32.621Z,50.60
2019-03-26T10:30:41.286Z,49.80
2019-03-26T10:31:45.842Z,48.80
2019-03-26T10:32:50.318Z,49.10
2019-03-26T10:33:54.788Z,48.70
2019-03-26T10:34:59.324Z,48.10
2019-03-26T10:36:04.315Z,46.80
2019-03-26T10:37:08.800Z,46.30
2019-03-26T10:38:13.366Z,45.40
2019-03-26T10:39:17.830Z,44.50
2019-03-26T10:40:30.438Z,44.00
2019-03-26T10:41:35.193Z,43.00
2019-03-26T10:42:39.707Z,42.60
2019-03-26T10:43:44.193Z,42.20
2019-03-26T10:44:48.667Z,41.90
2019-03-26T10:45:53.159Z,41.80
2019-03-26T10:46:57.776Z,41.90
2019-03-26T10:48:02.374Z,42.20
2019-03-26T10:49:06.855Z,42.10
2019-03-26T10:50:11.408Z,41.20
2019-03-26T10:51:15.928Z,41.90
2019-03-26T10:52:20.631Z,42.10
2019-03-26T10:53:25.117Z,42.40
2019-03-26T10:54:29.596Z,43.00
2019-03-26T10:55:34.078Z,43.10
2019-03-26T10:56:38.578Z,43.00
2019-03-26T10:57:43.043Z,42.80
2019-03-26T10:58:47.513Z,41.60
2019-03-26T10:59:52.002Z,42.00
2019-03-26T11:00:56.506Z,41.60
2019-03-26T11:02:01.001Z,41.50
2019-03-26T11:03:05.604Z,41.40
2019-03-26T11:04:10.144Z,41.30
2019-03-26T11:05:15.306Z,41.20
2019-03-26T11:06:19.937Z,40.70
2019-03-26T11:07:24.557Z,40.40
2019-03-26T11:08:29.092Z,40.80
2019-03-26T11:09:33.702Z,40.00
2019-03-26T11:10:38.280Z,38.50
2019-03-26T11:11:42.803Z,38.90
2019-03-26T11:12:47.569Z,39.00
2019-03-26T11:13:52.047Z,38.70
2019-03-26T11:14:56.526Z,38.00
2019-03-26T11:16:01.063Z,37.50
2019-03-26T11:17:05.552Z,37.10
2019-03-26T11:18:10.027Z,36.50
2019-03-26T11:19:14.506Z,35.00
2019-03-26T11:20:19.026Z,35.20
2019-03-26T11:21:23.536Z,34.20
2019-03-26T11:22:28.020Z,34.70
2019-03-26T11:23:32.523Z,34.20
2019-03-26T11:24:36.993Z,35.00
2019-03-26T11:25:41.519Z,34.50
2019-03-26T11:26:45.991Z,34.30
2019-03-26T11:27:51.409Z,34.70
2019-03-26T11:28:55.896Z,34.90
2019-03-26T11:30:00.503Z,35.00
2019-03-26T11:31:05.029Z,35.30
2019-03-26T11:32:09.527Z,35.40
2019-03-26T11:33:14.094Z,35.50
2019-03-26T11:34:18.670Z,35.70
2019-03-26T11:35:23.200Z,35.90
2019-03-26T11:36:27.782Z,36.00
2019-03-26T11:37:32.275Z,36.30
2019-03-26T11:39:40.890Z,36.30
2019-03-26T11:40:45.359Z,36.50
2019-03-26T11:41:49.849Z,36.70
2019-03-26T11:42:54.338Z,36.80
2019-03-26T11:43:58.858Z,37.10
2019-03-26T11:45:04.522Z,38.10
2019-03-26T11:46:08.983Z,37.60
2019-03-26T11:47:13.666Z,37.70
2019-03-26T11:48:18.398Z,37.80
2019-03-26T11:49:22.881Z,38.00
2019-03-26T11:50:27.383Z,38.20
2019-03-26T11:51:31.855Z,38.40
2019-03-26T11:52:36.318Z,38.70
2019-03-26T11:53:40.792Z,39.00
2019-03-26T11:54:45.284Z,39.30
2019-03-26T11:55:49.748Z,39.50
2019-03-26T11:56:54.240Z,39.60
2019-03-26T11:57:58.699Z,39.70
2019-03-26T11:59:03.249Z,39.70
2019-03-26T12:00:10.790Z,40.00
2019-03-26T12:01:15.370Z,40.00
2019-03-26T12:02:19.955Z,40.40
2019-03-26T12:03:24.565Z,40.50
2019-03-26T12:04:29.100Z,40.60
2019-03-26T12:05:33.942Z,40.70
2019-03-26T12:06:38.427Z,40.90
2019-03-26T12:07:43.393Z,41.30
2019-03-26T12:08:47.854Z,41.80
2019-03-26T12:09:52.331Z,42.30
2019-03-26T12:10:56.827Z,42.40
2019-03-26T12:12:01.288Z,41.70
2019-03-26T12:13:05.766Z,41.60
2019-03-26T12:14:10.226Z,41.00
2019-03-26T12:15:15.056Z,40.70
2019-03-26T12:16:19.520Z,40.30
2019-03-26T12:17:24.018Z,39.90
2019-03-26T12:18:28.480Z,39.80
2019-03-26T12:19:33.074Z,39.50
2019-03-26T12:20:37.573Z,39.20
2019-03-26T12:21:42.067Z,39.00
2019-03-26T12:22:46.831Z,38.90
2019-03-26T12:23:51.336Z,38.60
2019-03-26T12:24:55.804Z,38.60
2019-03-26T12:26:00.266Z,38.50
2019-03-26T12:27:04.740Z,38.50
2019-03-26T12:28:09.232Z,38.60
2019-03-26T12:29:13.807Z,38.60
2019-03-26T12:30:32.980Z,38.40
2019-03-26T12:31:37.437Z,38.30
2019-03-26T12:32:41.922Z,38.10
2019-03-26T12:33:46.464Z,38.10
2019-03-26T12:34:50.954Z,37.90
2019-03-26T12:35:55.444Z,38.00
2019-03-26T12:37:00.001Z,38.00
2019-03-26T12:38:15.689Z,38.20
2019-03-26T12:39:20.262Z,38.40
2019-03-26T12:40:24.923Z,38.10
2019-03-26T12:41:29.484Z,38.20
2019-03-26T12:42:34.082Z,38.40
2019-03-26T12:43:38.616Z,38.40
2019-03-26T12:44:43.251Z,38.40
2019-03-26T12:45:47.803Z,38.40
2019-03-26T12:46:52.370Z,38.60
2019-03-26T12:47:56.983Z,38.40
2019-03-26T12:49:01.612Z,38.30
2019-03-26T12:50:10.071Z,38.20
2019-03-26T12:51:14.549Z,38.30
2019-03-26T12:52:19.040Z,38.40
2019-03-26T12:53:23.510Z,38.60
2019-03-26T12:54:28.215Z,38.70
2019-03-26T12:55:32.720Z,39.10
2019-03-26T12:56:37.265Z,39.60
2019-03-26T12:57:41.736Z,40.00
2019-03-26T12:58:46.227Z,40.20
2019-03-26T12:59:50.782Z,40.70
2019-03-26T13:00:55.285Z,41.90
2019-03-26T13:01:59.766Z,41.40
2019-03-26T13:03:04.227Z,41.50
2019-03-26T13:04:12.877Z,41.50
2019-03-26T13:05:15.439Z,41.40
2019-03-26T13:06:19.989Z,41.20
2019-03-26T13:07:24.552Z,41.10
2019-03-26T13:08:29.021Z,40.90
2019-03-26T13:09:33.523Z,40.50
2019-03-26T13:10:38.056Z,40.30
2019-03-26T13:11:42.564Z,40.00
2019-03-26T13:12:47.032Z,38.80
2019-03-26T13:13:52.043Z,38.80
2019-03-26T13:14:59.340Z,38.30
2019-03-26T13:16:02.785Z,38.20
2019-03-26T13:17:07.258Z,38.00
2019-03-26T13:18:11.934Z,38.00
2019-03-26T13:19:16.754Z,38.10
2019-03-26T13:20:21.392Z,37.80
2019-03-26T13:21:26.061Z,37.70
2019-03-26T13:22:30.715Z,37.90
2019-03-26T13:23:35.258Z,37.20
2019-03-26T13:24:39.794Z,36.80
2019-03-26T13:25:44.366Z,36.30
2019-03-26T13:26:49.240Z,35.70
2019-03-26T13:27:54.065Z,35.20
2019-03-26T13:28:58.563Z,34.90
2019-03-26T13:30:03.992Z,34.70
2019-03-26T13:31:08.539Z,35.00
2019-03-26T13:32:13.279Z,35.20
2019-03-26T13:33:18.067Z,35.20
2019-03-26T13:34:22.568Z,35.10
2019-03-26T13:35:27.047Z,35.50
2019-03-26T13:36:31.706Z,35.60
2019-03-26T13:37:36.356Z,35.00
2019-03-26T13:38:40.856Z,34.70
2019-03-26T13:39:45.401Z,34.50
2019-03-26T13:40:50.086Z,34.00
2019-03-26T13:41:54.630Z,34.70
2019-03-26T13:42:59.116Z,34.80
2019-03-26T13:44:03.715Z,35.00
2019-03-26T13:45:08.750Z,34.20
2019-03-26T13:46:13.517Z,34.60
2019-03-26T13:47:18.065Z,34.20
2019-03-26T13:48:22.551Z,34.00
2019-03-26T13:49:27.037Z,33.70
2019-03-26T13:50:31.507Z,33.50
2019-03-26T13:51:37.310Z,33.20
2019-03-26T13:52:42.045Z,32.90
2019-03-26T13:53:46.515Z,32.70
2019-03-26T13:54:51.074Z,32.10
2019-03-26T13:55:55.706Z,31.90
2019-03-26T13:57:00.214Z,31.60
2019-03-26T13:58:04.689Z,31.40
2019-03-26T13:59:09.176Z,31.40
2019-03-26T14:00:15.638Z,31.40
2019-03-26T14:01:20.192Z,31.40
2019-03-26T14:02:24.943Z,31.60
2019-03-26T14:03:29.413Z,31.50
2019-03-26T14:04:33.931Z,31.70
2019-03-26T14:05:38.403Z,31.70
2019-03-26T14:06:42.880Z,31.90
2019-03-26T14:07:47.371Z,32.00